sensor_id;sensor_type;location;lat;lon;timestamp;P1;durP1;ratioP1;P2;durP2;ratioP2
17917;SDS011;9084;50.956;3.106;2022-09-09T00:01:22;3.58;;;1.60;;
17917;SDS011;9084;50.956;3.106;2022-09-09T00:09:21;2.58;;;1.10;;
17917;SDS011;9084;50.956;3.106;2022-09-09T00:12:00;2.83;;;1.13;;
17917;SDS011;9084;50.956;3.106;2022-09-09T00:14:42;4.60;;;1.20;;
17917;SDS011;9084;50.956;3.106;2022-09-09T00:23:28;2.08;;;1.23;;
17917;SDS011;9084;50.956;3.106;2022-09-09T00:25:54;2.28;;;1.02;;
17917;SDS011;9084;50.956;3.106;2022-09-09T00:28:22;1.60;;;0.80;;
17917;SDS011;9084;50.956;3.106;2022-09-09T00:30:55;3.80;;;1.23;;
17917;SDS011;9084;50.956;3.106;2022-09-09T00:33:26;3.05;;;0.82;;
17917;SDS011;9084;50.956;3.106;2022-09-09T00:35:56;3.17;;;0.77;;
17917;SDS011;9084;50.956;3.106;2022-09-09T00:43:56;2.47;;;0.88;;
17917;SDS011;9084;50.956;3.106;2022-09-09T00:46:47;3.55;;;0.90;;
17917;SDS011;9084;50.956;3.106;2022-09-09T00:57:31;3.13;;;0.85;;
17917;SDS011;9084;50.956;3.106;2022-09-09T01:06:02;3.00;;;1.08;;
17917;SDS011;9084;50.956;3.106;2022-09-09T01:11:06;5.00;;;1.48;;
17917;SDS011;9084;50.956;3.106;2022-09-09T01:13:58;2.25;;;0.98;;
17917;SDS011;9084;50.956;3.106;2022-09-09T01:16:44;2.88;;;1.50;;
17917;SDS011;9084;50.956;3.106;2022-09-09T01:19:14;3.58;;;0.95;;
17917;SDS011;9084;50.956;3.106;2022-09-09T01:24:27;4.78;;;1.17;;
17917;SDS011;9084;50.956;3.106;2022-09-09T01:27:03;3.05;;;1.38;;
17917;SDS011;9084;50.956;3.106;2022-09-09T01:29:33;4.22;;;1.33;;
17917;SDS011;9084;50.956;3.106;2022-09-09T01:32:00;5.05;;;1.88;;
17917;SDS011;9084;50.956;3.106;2022-09-09T01:34:30;3.42;;;1.42;;
17917;SDS011;9084;50.956;3.106;2022-09-09T01:37:00;2.83;;;1.15;;
17917;SDS011;9084;50.956;3.106;2022-09-09T01:39:33;2.30;;;1.50;;
17917;SDS011;9084;50.956;3.106;2022-09-09T01:42:04;4.38;;;1.27;;
17917;SDS011;9084;50.956;3.106;2022-09-09T01:44:33;2.28;;;0.98;;
17917;SDS011;9084;50.956;3.106;2022-09-09T01:47:07;3.95;;;1.48;;
17917;SDS011;9084;50.956;3.106;2022-09-09T01:49:33;4.78;;;1.38;;
17917;SDS011;9084;50.956;3.106;2022-09-09T01:52:01;2.40;;;1.13;;
17917;SDS011;9084;50.956;3.106;2022-09-09T01:54:28;4.70;;;1.25;;
17917;SDS011;9084;50.956;3.106;2022-09-09T01:57:18;3.95;;;1.30;;
17917;SDS011;9084;50.956;3.106;2022-09-09T02:08:57;2.65;;;1.10;;
17917;SDS011;9084;50.956;3.106;2022-09-09T02:11:26;3.45;;;1.10;;
17917;SDS011;9084;50.956;3.106;2022-09-09T02:14:17;3.95;;;1.25;;
17917;SDS011;9084;50.956;3.106;2022-09-09T02:16:52;5.95;;;1.85;;
17917;SDS011;9084;50.956;3.106;2022-09-09T02:19:28;4.15;;;1.60;;
17917;SDS011;9084;50.956;3.106;2022-09-09T02:22:01;4.68;;;1.55;;
17917;SDS011;9084;50.956;3.106;2022-09-09T02:24:32;3.53;;;1.50;;
17917;SDS011;9084;50.956;3.106;2022-09-09T02:27:01;3.08;;;1.10;;
17917;SDS011;9084;50.956;3.106;2022-09-09T02:29:39;4.40;;;1.45;;
17917;SDS011;9084;50.956;3.106;2022-09-09T02:32:11;6.10;;;1.70;;
17917;SDS011;9084;50.956;3.106;2022-09-09T02:34:40;2.47;;;1.08;;
17917;SDS011;9084;50.956;3.106;2022-09-09T02:37:10;5.38;;;1.70;;
17917;SDS011;9084;50.956;3.106;2022-09-09T02:39:37;5.13;;;1.58;;
17917;SDS011;9084;50.956;3.106;2022-09-09T02:42:03;4.75;;;1.48;;
17917;SDS011;9084;50.956;3.106;2022-09-09T02:49:28;4.50;;;1.83;;
17917;SDS011;9084;50.956;3.106;2022-09-09T02:52:13;3.60;;;1.33;;
17917;SDS011;9084;50.956;3.106;2022-09-09T02:54:41;4.43;;;1.30;;
17917;SDS011;9084;50.956;3.106;2022-09-09T02:57:19;4.32;;;1.40;;
17917;SDS011;9084;50.956;3.106;2022-09-09T02:59:52;4.97;;;1.50;;
17917;SDS011;9084;50.956;3.106;2022-09-09T03:02:21;7.53;;;1.70;;
17917;SDS011;9084;50.956;3.106;2022-09-09T03:04:50;3.60;;;1.38;;
17917;SDS011;9084;50.956;3.106;2022-09-09T03:07:21;5.68;;;1.85;;
17917;SDS011;9084;50.956;3.106;2022-09-09T03:09:47;4.65;;;1.73;;
17917;SDS011;9084;50.956;3.106;2022-09-09T03:12:13;5.07;;;1.65;;
17917;SDS011;9084;50.956;3.106;2022-09-09T03:14:41;3.53;;;1.50;;
17917;SDS011;9084;50.956;3.106;2022-09-09T03:17:08;5.60;;;1.63;;
17917;SDS011;9084;50.956;3.106;2022-09-09T03:19:36;8.27;;;2.33;;
17917;SDS011;9084;50.956;3.106;2022-09-09T03:22:02;5.10;;;1.65;;
17917;SDS011;9084;50.956;3.106;2022-09-09T03:24:31;4.70;;;1.73;;
17917;SDS011;9084;50.956;3.106;2022-09-09T03:26:57;4.45;;;1.73;;
17917;SDS011;9084;50.956;3.106;2022-09-09T03:29:26;5.65;;;1.73;;
17917;SDS011;9084;50.956;3.106;2022-09-09T03:31:52;3.95;;;1.30;;
17917;SDS011;9084;50.956;3.106;2022-09-09T03:34:17;2.83;;;1.33;;
17917;SDS011;9084;50.956;3.106;2022-09-09T03:36:46;9.32;;;2.33;;
17917;SDS011;9084;50.956;3.106;2022-09-09T03:39:13;8.45;;;1.92;;
17917;SDS011;9084;50.956;3.106;2022-09-09T03:41:39;4.32;;;1.70;;
17917;SDS011;9084;50.956;3.106;2022-09-09T03:44:08;5.25;;;2.08;;
17917;SDS011;9084;50.956;3.106;2022-09-09T03:46:34;4.18;;;1.67;;
17917;SDS011;9084;50.956;3.106;2022-09-09T03:49:00;5.75;;;1.95;;
17917;SDS011;9084;50.956;3.106;2022-09-09T03:51:26;5.07;;;1.85;;
17917;SDS011;9084;50.956;3.106;2022-09-09T03:53:52;5.18;;;1.83;;
17917;SDS011;9084;50.956;3.106;2022-09-09T03:56:21;5.82;;;2.08;;
17917;SDS011;9084;50.956;3.106;2022-09-09T03:58:47;7.10;;;1.80;;
17917;SDS011;9084;50.956;3.106;2022-09-09T04:01:13;7.65;;;1.67;;
17917;SDS011;9084;50.956;3.106;2022-09-09T04:03:41;4.82;;;1.70;;
17917;SDS011;9084;50.956;3.106;2022-09-09T04:06:07;5.90;;;2.20;;
17917;SDS011;9084;50.956;3.106;2022-09-09T04:08:36;10.05;;;2.78;;
17917;SDS011;9084;50.956;3.106;2022-09-09T04:11:04;14.25;;;2.58;;
17917;SDS011;9084;50.956;3.106;2022-09-09T04:13:33;5.20;;;1.83;;
17917;SDS011;9084;50.956;3.106;2022-09-09T04:16:01;7.53;;;2.13;;
17917;SDS011;9084;50.956;3.106;2022-09-09T04:18:31;6.75;;;2.38;;
17917;SDS011;9084;50.956;3.106;2022-09-09T04:20:57;4.47;;;2.10;;
17917;SDS011;9084;50.956;3.106;2022-09-09T04:23:26;5.07;;;1.55;;
17917;SDS011;9084;50.956;3.106;2022-09-09T04:25:57;5.38;;;1.65;;
17917;SDS011;9084;50.956;3.106;2022-09-09T04:28:27;7.68;;;2.25;;
17917;SDS011;9084;50.956;3.106;2022-09-09T04:30:55;5.47;;;1.92;;
17917;SDS011;9084;50.956;3.106;2022-09-09T04:33:23;8.93;;;2.58;;
17917;SDS011;9084;50.956;3.106;2022-09-09T04:35:51;6.28;;;2.00;;
17917;SDS011;9084;50.956;3.106;2022-09-09T04:38:18;8.27;;;2.58;;
17917;SDS011;9084;50.956;3.106;2022-09-09T04:40:46;6.15;;;2.05;;
17917;SDS011;9084;50.956;3.106;2022-09-09T04:43:16;5.30;;;2.08;;
17917;SDS011;9084;50.956;3.106;2022-09-09T04:45:46;8.15;;;2.55;;
17917;SDS011;9084;50.956;3.106;2022-09-09T04:48:13;8.75;;;2.28;;
17917;SDS011;9084;50.956;3.106;2022-09-09T04:50:38;8.07;;;2.45;;
17917;SDS011;9084;50.956;3.106;2022-09-09T04:53:06;4.97;;;2.20;;
17917;SDS011;9084;50.956;3.106;2022-09-09T04:55:34;7.03;;;1.70;;
17917;SDS011;9084;50.956;3.106;2022-09-09T04:58:06;6.22;;;2.33;;
17917;SDS011;9084;50.956;3.106;2022-09-09T05:00:33;6.60;;;2.42;;
17917;SDS011;9084;50.956;3.106;2022-09-09T05:03:03;5.35;;;1.88;;
17917;SDS011;9084;50.956;3.106;2022-09-09T05:05:30;8.45;;;2.63;;
17917;SDS011;9084;50.956;3.106;2022-09-09T05:08:05;7.28;;;2.35;;
17917;SDS011;9084;50.956;3.106;2022-09-09T05:10:33;6.32;;;2.65;;
17917;SDS011;9084;50.956;3.106;2022-09-09T05:13:06;10.43;;;2.80;;
17917;SDS011;9084;50.956;3.106;2022-09-09T05:15:31;4.80;;;2.47;;
17917;SDS011;9084;50.956;3.106;2022-09-09T05:18:00;7.15;;;2.40;;
17917;SDS011;9084;50.956;3.106;2022-09-09T05:20:27;4.90;;;2.00;;
17917;SDS011;9084;50.956;3.106;2022-09-09T05:22:54;6.40;;;2.10;;
17917;SDS011;9084;50.956;3.106;2022-09-09T05:25:21;6.15;;;2.45;;
17917;SDS011;9084;50.956;3.106;2022-09-09T05:27:53;6.00;;;2.20;;
17917;SDS011;9084;50.956;3.106;2022-09-09T05:30:21;9.35;;;3.13;;
17917;SDS011;9084;50.956;3.106;2022-09-09T05:32:53;8.75;;;2.40;;
17917;SDS011;9084;50.956;3.106;2022-09-09T05:35:23;6.10;;;2.53;;
17917;SDS011;9084;50.956;3.106;2022-09-09T05:37:49;7.30;;;3.28;;
17917;SDS011;9084;50.956;3.106;2022-09-09T05:40:15;6.60;;;2.05;;
17917;SDS011;9084;50.956;3.106;2022-09-09T05:42:41;8.65;;;2.53;;
17917;SDS011;9084;50.956;3.106;2022-09-09T05:45:08;7.18;;;2.67;;
17917;SDS011;9084;50.956;3.106;2022-09-09T05:47:34;7.97;;;2.50;;
17917;SDS011;9084;50.956;3.106;2022-09-09T05:50:02;9.55;;;2.38;;
17917;SDS011;9084;50.956;3.106;2022-09-09T05:52:31;6.63;;;2.40;;
17917;SDS011;9084;50.956;3.106;2022-09-09T05:54:59;4.18;;;2.13;;
17917;SDS011;9084;50.956;3.106;2022-09-09T05:57:25;8.93;;;2.42;;
17917;SDS011;9084;50.956;3.106;2022-09-09T05:59:53;7.55;;;2.08;;
17917;SDS011;9084;50.956;3.106;2022-09-09T06:02:20;7.00;;;2.15;;
17917;SDS011;9084;50.956;3.106;2022-09-09T06:04:46;7.32;;;2.53;;
17917;SDS011;9084;50.956;3.106;2022-09-09T06:07:12;7.35;;;2.17;;
17917;SDS011;9084;50.956;3.106;2022-09-09T06:09:39;6.00;;;1.83;;
17917;SDS011;9084;50.956;3.106;2022-09-09T06:12:05;5.38;;;1.70;;
17917;SDS011;9084;50.956;3.106;2022-09-09T06:14:31;8.35;;;2.53;;
17917;SDS011;9084;50.956;3.106;2022-09-09T06:16:59;7.05;;;2.10;;
17917;SDS011;9084;50.956;3.106;2022-09-09T06:19:27;5.95;;;2.38;;
17917;SDS011;9084;50.956;3.106;2022-09-09T06:21:55;6.40;;;2.35;;
17917;SDS011;9084;50.956;3.106;2022-09-09T06:24:21;7.85;;;2.42;;
17917;SDS011;9084;50.956;3.106;2022-09-09T06:26:47;7.57;;;1.95;;
17917;SDS011;9084;50.956;3.106;2022-09-09T06:29:15;6.25;;;2.28;;
17917;SDS011;9084;50.956;3.106;2022-09-09T06:31:41;6.38;;;2.22;;
17917;SDS011;9084;50.956;3.106;2022-09-09T06:34:07;5.32;;;2.53;;
17917;SDS011;9084;50.956;3.106;2022-09-09T06:36:34;7.43;;;2.95;;
17917;SDS011;9084;50.956;3.106;2022-09-09T06:39:02;6.00;;;1.85;;
17917;SDS011;9084;50.956;3.106;2022-09-09T06:41:29;10.32;;;2.75;;
17917;SDS011;9084;50.956;3.106;2022-09-09T06:43:56;6.13;;;2.67;;
17917;SDS011;9084;50.956;3.106;2022-09-09T06:46:27;6.07;;;2.22;;
17917;SDS011;9084;50.956;3.106;2022-09-09T06:48:57;6.30;;;2.53;;
17917;SDS011;9084;50.956;3.106;2022-09-09T06:51:29;6.53;;;2.72;;
17917;SDS011;9084;50.956;3.106;2022-09-09T06:54:00;4.93;;;2.25;;
17917;SDS011;9084;50.956;3.106;2022-09-09T06:56:36;6.13;;;2.22;;
17917;SDS011;9084;50.956;3.106;2022-09-09T06:59:08;7.38;;;2.90;;
17917;SDS011;9084;50.956;3.106;2022-09-09T07:01:39;7.78;;;2.50;;
17917;SDS011;9084;50.956;3.106;2022-09-09T07:04:06;6.65;;;2.85;;
17917;SDS011;9084;50.956;3.106;2022-09-09T07:06:36;5.85;;;2.40;;
17917;SDS011;9084;50.956;3.106;2022-09-09T07:09:05;8.27;;;3.15;;
17917;SDS011;9084;50.956;3.106;2022-09-09T07:11:36;7.65;;;2.70;;
17917;SDS011;9084;50.956;3.106;2022-09-09T07:14:07;5.53;;;2.30;;
17917;SDS011;9084;50.956;3.106;2022-09-09T07:16:33;9.40;;;2.88;;
17917;SDS011;9084;50.956;3.106;2022-09-09T07:19:01;6.82;;;2.15;;
17917;SDS011;9084;50.956;3.106;2022-09-09T07:21:29;6.05;;;2.92;;
17917;SDS011;9084;50.956;3.106;2022-09-09T07:23:57;7.47;;;3.17;;
17917;SDS011;9084;50.956;3.106;2022-09-09T07:26:24;7.65;;;2.40;;
17917;SDS011;9084;50.956;3.106;2022-09-09T07:28:52;4.75;;;1.83;;
17917;SDS011;9084;50.956;3.106;2022-09-09T07:31:22;8.43;;;2.20;;
17917;SDS011;9084;50.956;3.106;2022-09-09T07:33:51;7.43;;;2.78;;
17917;SDS011;9084;50.956;3.106;2022-09-09T07:38:58;6.18;;;2.63;;
17917;SDS011;9084;50.956;3.106;2022-09-09T07:41:27;5.70;;;2.22;;
17917;SDS011;9084;50.956;3.106;2022-09-09T07:43:55;5.70;;;1.85;;
17917;SDS011;9084;50.956;3.106;2022-09-09T07:46:22;6.22;;;2.08;;
17917;SDS011;9084;50.956;3.106;2022-09-09T07:48:52;5.18;;;2.00;;
17917;SDS011;9084;50.956;3.106;2022-09-09T07:51:20;5.60;;;2.30;;
17917;SDS011;9084;50.956;3.106;2022-09-09T07:53:53;3.13;;;1.55;;
17917;SDS011;9084;50.956;3.106;2022-09-09T07:56:22;5.53;;;2.00;;
17917;SDS011;9084;50.956;3.106;2022-09-09T07:58:49;3.25;;;1.90;;
17917;SDS011;9084;50.956;3.106;2022-09-09T08:01:18;3.83;;;2.00;;
17917;SDS011;9084;50.956;3.106;2022-09-09T08:03:54;2.88;;;1.73;;
17917;SDS011;9084;50.956;3.106;2022-09-09T08:06:26;5.03;;;2.10;;
17917;SDS011;9084;50.956;3.106;2022-09-09T08:08:55;5.32;;;1.90;;
17917;SDS011;9084;50.956;3.106;2022-09-09T08:11:24;4.00;;;1.73;;
17917;SDS011;9084;50.956;3.106;2022-09-09T08:13:51;3.97;;;1.80;;
17917;SDS011;9084;50.956;3.106;2022-09-09T08:16:19;6.10;;;1.92;;
17917;SDS011;9084;50.956;3.106;2022-09-09T08:18:50;4.55;;;1.80;;
17917;SDS011;9084;50.956;3.106;2022-09-09T08:21:26;3.40;;;1.50;;
17917;SDS011;9084;50.956;3.106;2022-09-09T08:23:54;1.90;;;1.50;;
17917;SDS011;9084;50.956;3.106;2022-09-09T08:26:21;4.13;;;1.60;;
17917;SDS011;9084;50.956;3.106;2022-09-09T08:28:49;4.63;;;1.85;;
17917;SDS011;9084;50.956;3.106;2022-09-09T08:31:20;3.15;;;1.60;;
17917;SDS011;9084;50.956;3.106;2022-09-09T08:33:49;3.78;;;1.92;;
17917;SDS011;9084;50.956;3.106;2022-09-09T08:36:21;3.30;;;2.05;;
17917;SDS011;9084;50.956;3.106;2022-09-09T08:38:49;3.58;;;1.30;;
17917;SDS011;9084;50.956;3.106;2022-09-09T08:43:48;2.97;;;1.60;;
17917;SDS011;9084;50.956;3.106;2022-09-09T08:46:38;3.25;;;2.17;;
17917;SDS011;9084;50.956;3.106;2022-09-09T08:57:53;2.22;;;1.30;;
17917;SDS011;9084;50.956;3.106;2022-09-09T09:00:21;1.50;;;1.00;;
17917;SDS011;9084;50.956;3.106;2022-09-09T09:02:58;4.32;;;1.15;;
17917;SDS011;9084;50.956;3.106;2022-09-09T09:05:56;2.75;;;1.58;;
17917;SDS011;9084;50.956;3.106;2022-09-09T09:08:43;2.40;;;1.10;;
17917;SDS011;9084;50.956;3.106;2022-09-09T09:11:18;3.58;;;1.52;;
17917;SDS011;9084;50.956;3.106;2022-09-09T09:13:48;2.60;;;1.20;;
17917;SDS011;9084;50.956;3.106;2022-09-09T09:19:08;1.95;;;0.80;;
17917;SDS011;9084;50.956;3.106;2022-09-09T09:21:40;2.83;;;1.02;;
17917;SDS011;9084;50.956;3.106;2022-09-09T09:26:54;3.20;;;1.05;;
17917;SDS011;9084;50.956;3.106;2022-09-09T09:29:23;2.78;;;1.17;;
17917;SDS011;9084;50.956;3.106;2022-09-09T09:31:52;2.25;;;0.80;;
17917;SDS011;9084;50.956;3.106;2022-09-09T09:34:23;1.10;;;0.75;;
17917;SDS011;9084;50.956;3.106;2022-09-09T09:36:54;2.17;;;1.00;;
17917;SDS011;9084;50.956;3.106;2022-09-09T09:39:33;1.08;;;0.70;;
17917;SDS011;9084;50.956;3.106;2022-09-09T09:42:10;2.40;;;1.10;;
17917;SDS011;9084;50.956;3.106;2022-09-09T09:44:39;1.83;;;0.80;;
17917;SDS011;9084;50.956;3.106;2022-09-09T09:47:11;4.10;;;1.13;;
17917;SDS011;9084;50.956;3.106;2022-09-09T09:52:51;1.15;;;0.70;;
17917;SDS011;9084;50.956;3.106;2022-09-09T09:55:22;1.48;;;0.80;;
17917;SDS011;9084;50.956;3.106;2022-09-09T09:57:49;1.65;;;0.75;;
17917;SDS011;9084;50.956;3.106;2022-09-09T10:02:45;1.23;;;0.65;;
17917;SDS011;9084;50.956;3.106;2022-09-09T10:08:00;2.22;;;0.82;;
17917;SDS011;9084;50.956;3.106;2022-09-09T10:10:51;1.85;;;0.90;;
17917;SDS011;9084;50.956;3.106;2022-09-09T10:17:08;1.20;;;0.80;;
17917;SDS011;9084;50.956;3.106;2022-09-09T10:19:36;2.17;;;0.98;;
17917;SDS011;9084;50.956;3.106;2022-09-09T10:22:26;2.83;;;0.80;;
17917;SDS011;9084;50.956;3.106;2022-09-09T10:27:46;1.48;;;0.80;;
17917;SDS011;9084;50.956;3.106;2022-09-09T10:30:21;2.70;;;0.90;;
17917;SDS011;9084;50.956;3.106;2022-09-09T10:33:16;2.58;;;0.98;;
17917;SDS011;9084;50.956;3.106;2022-09-09T10:59:50;1.77;;;1.00;;
17917;SDS011;9084;50.956;3.106;2022-09-09T11:05:02;3.00;;;1.10;;
17917;SDS011;9084;50.956;3.106;2022-09-09T11:07:39;2.63;;;1.20;;
17917;SDS011;9084;50.956;3.106;2022-09-09T11:10:28;1.73;;;0.90;;
17917;SDS011;9084;50.956;3.106;2022-09-09T11:12:59;1.88;;;1.08;;
17917;SDS011;9084;50.956;3.106;2022-09-09T11:15:40;2.53;;;1.00;;
17917;SDS011;9084;50.956;3.106;2022-09-09T11:18:11;4.68;;;0.90;;
17917;SDS011;9084;50.956;3.106;2022-09-09T11:20:44;1.80;;;0.85;;
17917;SDS011;9084;50.956;3.106;2022-09-09T11:23:17;2.22;;;0.85;;
17917;SDS011;9084;50.956;3.106;2022-09-09T11:25:54;4.05;;;1.30;;
17917;SDS011;9084;50.956;3.106;2022-09-09T11:28:49;2.40;;;1.02;;
17917;SDS011;9084;50.956;3.106;2022-09-09T11:42:36;2.95;;;1.30;;
17917;SDS011;9084;50.956;3.106;2022-09-09T11:45:15;5.20;;;1.20;;
17917;SDS011;9084;50.956;3.106;2022-09-09T11:47:53;1.80;;;0.95;;
17917;SDS011;9084;50.956;3.106;2022-09-09T11:52:47;3.15;;;1.40;;
17917;SDS011;9084;50.956;3.106;2022-09-09T11:55:32;3.08;;;1.35;;
17917;SDS011;9084;50.956;3.106;2022-09-09T11:58:02;3.65;;;1.48;;
17917;SDS011;9084;50.956;3.106;2022-09-09T12:00:45;3.10;;;1.48;;
17917;SDS011;9084;50.956;3.106;2022-09-09T12:06:19;4.05;;;1.52;;
17917;SDS011;9084;50.956;3.106;2022-09-09T12:08:52;4.88;;;2.63;;
17917;SDS011;9084;50.956;3.106;2022-09-09T12:11:28;6.00;;;1.95;;
17917;SDS011;9084;50.956;3.106;2022-09-09T12:13:56;6.00;;;2.67;;
17917;SDS011;9084;50.956;3.106;2022-09-09T12:16:33;2.75;;;1.88;;
17917;SDS011;9084;50.956;3.106;2022-09-09T12:21:47;3.92;;;1.70;;
17917;SDS011;9084;50.956;3.106;2022-09-09T12:24:34;3.33;;;2.03;;
17917;SDS011;9084;50.956;3.106;2022-09-09T12:27:18;4.60;;;1.67;;
17917;SDS011;9084;50.956;3.106;2022-09-09T12:29:59;2.92;;;1.67;;
17917;SDS011;9084;50.956;3.106;2022-09-09T12:32:29;3.92;;;2.17;;
17917;SDS011;9084;50.956;3.106;2022-09-09T12:34:55;2.10;;;1.40;;
17917;SDS011;9084;50.956;3.106;2022-09-09T12:37:40;2.60;;;1.52;;
17917;SDS011;9084;50.956;3.106;2022-09-09T12:40:25;3.28;;;1.55;;
17917;SDS011;9084;50.956;3.106;2022-09-09T12:43:00;6.15;;;1.70;;
17917;SDS011;9084;50.956;3.106;2022-09-09T12:45:31;3.22;;;1.65;;
17917;SDS011;9084;50.956;3.106;2022-09-09T12:47:59;3.38;;;1.83;;
17917;SDS011;9084;50.956;3.106;2022-09-09T12:50:30;2.28;;;1.20;;
17917;SDS011;9084;50.956;3.106;2022-09-09T12:56:03;2.30;;;1.40;;
17917;SDS011;9084;50.956;3.106;2022-09-09T12:58:33;3.45;;;1.20;;
17917;SDS011;9084;50.956;3.106;2022-09-09T13:00:59;4.10;;;1.52;;
17917;SDS011;9084;50.956;3.106;2022-09-09T13:03:28;2.75;;;1.60;;
17917;SDS011;9084;50.956;3.106;2022-09-09T13:05:57;2.33;;;1.38;;
17917;SDS011;9084;50.956;3.106;2022-09-09T13:08:36;2.42;;;1.30;;
17917;SDS011;9084;50.956;3.106;2022-09-09T13:11:06;2.67;;;1.50;;
17917;SDS011;9084;50.956;3.106;2022-09-09T13:13:39;6.88;;;1.90;;
17917;SDS011;9084;50.956;3.106;2022-09-09T13:16:06;3.30;;;1.80;;
17917;SDS011;9084;50.956;3.106;2022-09-09T13:19:09;3.53;;;1.35;;
17917;SDS011;9084;50.956;3.106;2022-09-09T13:21:39;3.97;;;1.50;;
17917;SDS011;9084;50.956;3.106;2022-09-09T13:24:06;4.40;;;1.60;;
17917;SDS011;9084;50.956;3.106;2022-09-09T13:26:57;2.17;;;1.60;;
17917;SDS011;9084;50.956;3.106;2022-09-09T13:29:28;3.40;;;1.50;;
17917;SDS011;9084;50.956;3.106;2022-09-09T13:32:38;3.38;;;1.45;;
17917;SDS011;9084;50.956;3.106;2022-09-09T13:34:52;2.88;;;1.40;;
17917;SDS011;9084;50.956;3.106;2022-09-09T13:37:33;3.00;;;0.98;;
17917;SDS011;9084;50.956;3.106;2022-09-09T13:40:06;1.50;;;0.90;;
17917;SDS011;9084;50.956;3.106;2022-09-09T13:42:42;2.78;;;1.15;;
17917;SDS011;9084;50.956;3.106;2022-09-09T13:45:19;1.98;;;1.08;;
17917;SDS011;9084;50.956;3.106;2022-09-09T13:47:48;2.88;;;0.85;;
17917;SDS011;9084;50.956;3.106;2022-09-09T13:50:27;2.40;;;1.05;;
17917;SDS011;9084;50.956;3.106;2022-09-09T13:52:55;1.60;;;0.85;;
17917;SDS011;9084;50.956;3.106;2022-09-09T13:55:26;1.13;;;0.63;;
17917;SDS011;9084;50.956;3.106;2022-09-09T13:57:54;1.40;;;0.80;;
17917;SDS011;9084;50.956;3.106;2022-09-09T14:00:22;3.13;;;0.70;;
17917;SDS011;9084;50.956;3.106;2022-09-09T14:02:51;3.88;;;1.23;;
17917;SDS011;9084;50.956;3.106;2022-09-09T14:05:19;3.15;;;0.70;;
17917;SDS011;9084;50.956;3.106;2022-09-09T14:07:47;1.85;;;0.80;;
17917;SDS011;9084;50.956;3.106;2022-09-09T14:10:14;1.75;;;0.60;;
17917;SDS011;9084;50.956;3.106;2022-09-09T14:12:42;2.60;;;0.90;;
17917;SDS011;9084;50.956;3.106;2022-09-09T14:15:13;1.10;;;0.57;;
17917;SDS011;9084;50.956;3.106;2022-09-09T14:17:42;3.05;;;0.82;;
17917;SDS011;9084;50.956;3.106;2022-09-09T14:20:08;1.45;;;0.65;;
17917;SDS011;9084;50.956;3.106;2022-09-09T14:22:38;1.05;;;0.45;;
17917;SDS011;9084;50.956;3.106;2022-09-09T14:25:07;2.00;;;0.82;;
17917;SDS011;9084;50.956;3.106;2022-09-09T14:27:33;2.97;;;0.68;;
17917;SDS011;9084;50.956;3.106;2022-09-09T14:29:59;3.38;;;0.82;;
17917;SDS011;9084;50.956;3.106;2022-09-09T14:32:25;1.25;;;0.70;;
17917;SDS011;9084;50.956;3.106;2022-09-09T14:34:54;1.27;;;0.70;;
17917;SDS011;9084;50.956;3.106;2022-09-09T14:37:20;1.70;;;0.80;;
17917;SDS011;9084;50.956;3.106;2022-09-09T14:39:49;2.28;;;0.80;;
17917;SDS011;9084;50.956;3.106;2022-09-09T14:42:18;2.03;;;0.80;;
17917;SDS011;9084;50.956;3.106;2022-09-09T14:44:47;2.00;;;0.95;;
17917;SDS011;9084;50.956;3.106;2022-09-09T14:47:15;1.70;;;0.80;;
17917;SDS011;9084;50.956;3.106;2022-09-09T14:49:41;2.67;;;0.80;;
17917;SDS011;9084;50.956;3.106;2022-09-09T14:52:07;2.17;;;0.82;;
17917;SDS011;9084;50.956;3.106;2022-09-09T14:54:36;2.05;;;0.70;;
17917;SDS011;9084;50.956;3.106;2022-09-09T14:57:02;2.95;;;1.02;;
17917;SDS011;9084;50.956;3.106;2022-09-09T14:59:28;2.65;;;1.10;;
17917;SDS011;9084;50.956;3.106;2022-09-09T15:01:56;1.85;;;0.90;;
17917;SDS011;9084;50.956;3.106;2022-09-09T15:04:29;3.70;;;1.20;;
17917;SDS011;9084;50.956;3.106;2022-09-09T15:06:55;2.30;;;0.82;;
17917;SDS011;9084;50.956;3.106;2022-09-09T15:09:21;1.75;;;1.17;;
17917;SDS011;9084;50.956;3.106;2022-09-09T15:11:47;2.55;;;1.33;;
17917;SDS011;9084;50.956;3.106;2022-09-09T15:14:13;2.55;;;1.42;;
17917;SDS011;9084;50.956;3.106;2022-09-09T15:16:40;3.58;;;2.00;;
17917;SDS011;9084;50.956;3.106;2022-09-09T15:19:08;2.72;;;1.90;;
17917;SDS011;9084;50.956;3.106;2022-09-09T15:21:35;3.90;;;2.22;;
17917;SDS011;9084;50.956;3.106;2022-09-09T15:24:02;2.78;;;1.92;;
17917;SDS011;9084;50.956;3.106;2022-09-09T15:26:29;4.63;;;1.98;;
17917;SDS011;9084;50.956;3.106;2022-09-09T15:28:55;2.75;;;1.70;;
17917;SDS011;9084;50.956;3.106;2022-09-09T15:31:25;2.92;;;1.83;;
17917;SDS011;9084;50.956;3.106;2022-09-09T15:33:58;3.25;;;1.80;;
17917;SDS011;9084;50.956;3.106;2022-09-09T15:39:06;2.83;;;1.50;;
17917;SDS011;9084;50.956;3.106;2022-09-09T15:41:34;2.90;;;1.60;;
17917;SDS011;9084;50.956;3.106;2022-09-09T15:44:00;4.03;;;1.77;;
17917;SDS011;9084;50.956;3.106;2022-09-09T15:46:32;4.10;;;1.80;;
17917;SDS011;9084;50.956;3.106;2022-09-09T15:49:15;3.15;;;1.80;;
17917;SDS011;9084;50.956;3.106;2022-09-09T15:51:56;3.38;;;1.33;;
17917;SDS011;9084;50.956;3.106;2022-09-09T15:54:23;1.48;;;1.23;;
17917;SDS011;9084;50.956;3.106;2022-09-09T15:56:52;4.82;;;1.45;;
17917;SDS011;9084;50.956;3.106;2022-09-09T15:59:25;3.78;;;1.30;;
17917;SDS011;9084;50.956;3.106;2022-09-09T16:01:55;3.38;;;1.25;;
17917;SDS011;9084;50.956;3.106;2022-09-09T16:04:23;1.83;;;1.20;;
17917;SDS011;9084;50.956;3.106;2022-09-09T16:06:52;3.00;;;1.33;;
17917;SDS011;9084;50.956;3.106;2022-09-09T16:09:23;1.50;;;1.02;;
17917;SDS011;9084;50.956;3.106;2022-09-09T16:11:52;3.35;;;1.27;;
17917;SDS011;9084;50.956;3.106;2022-09-09T16:14:23;3.17;;;0.90;;
17917;SDS011;9084;50.956;3.106;2022-09-09T16:16:50;2.95;;;1.20;;
17917;SDS011;9084;50.956;3.106;2022-09-09T16:19:16;3.15;;;0.85;;
17917;SDS011;9084;50.956;3.106;2022-09-09T16:21:43;4.60;;;1.50;;
17917;SDS011;9084;50.956;3.106;2022-09-09T16:24:14;3.00;;;1.10;;
17917;SDS011;9084;50.956;3.106;2022-09-09T16:26:42;2.63;;;0.80;;
17917;SDS011;9084;50.956;3.106;2022-09-09T16:29:10;3.80;;;1.13;;
17917;SDS011;9084;50.956;3.106;2022-09-09T16:31:39;5.20;;;1.17;;
17917;SDS011;9084;50.956;3.106;2022-09-09T16:34:05;3.30;;;1.10;;
17917;SDS011;9084;50.956;3.106;2022-09-09T16:36:34;5.50;;;1.60;;
17917;SDS011;9084;50.956;3.106;2022-09-09T16:39:13;4.75;;;1.20;;
17917;SDS011;9084;50.956;3.106;2022-09-09T16:41:41;4.85;;;1.27;;
17917;SDS011;9084;50.956;3.106;2022-09-09T16:44:10;2.67;;;1.10;;
17917;SDS011;9084;50.956;3.106;2022-09-09T16:46:38;6.75;;;1.17;;
17917;SDS011;9084;50.956;3.106;2022-09-09T16:49:11;3.03;;;1.15;;
17917;SDS011;9084;50.956;3.106;2022-09-09T16:51:47;6.57;;;2.17;;
17917;SDS011;9084;50.956;3.106;2022-09-09T16:54:15;3.67;;;1.30;;
17917;SDS011;9084;50.956;3.106;2022-09-09T16:56:45;3.53;;;1.15;;
17917;SDS011;9084;50.956;3.106;2022-09-09T16:59:19;2.08;;;1.05;;
17917;SDS011;9084;50.956;3.106;2022-09-09T17:01:49;7.20;;;1.35;;
17917;SDS011;9084;50.956;3.106;2022-09-09T17:04:17;2.67;;;1.02;;
17917;SDS011;9084;50.956;3.106;2022-09-09T17:06:49;4.28;;;1.20;;
17917;SDS011;9084;50.956;3.106;2022-09-09T17:09:17;4.30;;;1.55;;
17917;SDS011;9084;50.956;3.106;2022-09-09T17:11:46;4.30;;;1.10;;
17917;SDS011;9084;50.956;3.106;2022-09-09T17:14:13;5.15;;;1.30;;
17917;SDS011;9084;50.956;3.106;2022-09-09T17:16:47;4.88;;;1.80;;
17917;SDS011;9084;50.956;3.106;2022-09-09T17:19:13;5.82;;;1.48;;
17917;SDS011;9084;50.956;3.106;2022-09-09T17:21:42;5.78;;;1.60;;
17917;SDS011;9084;50.956;3.106;2022-09-09T17:24:11;5.15;;;1.92;;
17917;SDS011;9084;50.956;3.106;2022-09-09T17:26:38;5.05;;;1.45;;
17917;SDS011;9084;50.956;3.106;2022-09-09T17:29:04;5.20;;;1.55;;
17917;SDS011;9084;50.956;3.106;2022-09-09T17:31:33;7.13;;;1.63;;
17917;SDS011;9084;50.956;3.106;2022-09-09T17:33:59;2.75;;;1.00;;
17917;SDS011;9084;50.956;3.106;2022-09-09T17:36:26;2.60;;;1.27;;
17917;SDS011;9084;50.956;3.106;2022-09-09T17:38:57;4.00;;;1.30;;